Provo, UT

5:27 AM MDT on October 23, 2014 (GMT -0600)
Heber | Change Station
CLOSE
Current Station
Airport
Location: Heber,
Elevation: 5636 ft
Nearby Weather Stations

Elev 5636 ft 40.48 °N, 111.43 °W | Updated 12 minutes ago

Clear
Clear
30 °F
Feels Like 30 °F
N
0
Wind Variable Wind from North

Today
High -- | Low -- °F
--% Chance of Precip.
Yesterday
High -- | Low -- °F
Precip. -- in
7:46 AM 6:35 PM
Waning Crescent, 0% visible
Pressure 30.22 in
Visibility 10.0 miles
Clouds Clear
Dew Point 25 °F
Humidity 80%
Rainfall 0.00 in
Snow Depth Not available.
UV 0 out of 12
Pollen 1.80 out of 12
Air Quality Not available.
Flu Activity Sporadic
METAR K36U 231115Z AUTO 00000KT 10SM CLR M01/M04 A3022 RMK AO2

More Conditions Fewer Conditions

Pressure 30.22 in
Visibility 10.0 miles
Clouds Clear
Dew Point 25 °F
Humidity 80%
Rainfall 0.00 in
Snow Depth Not available.
UV 0 out of 12
Pollen 1.80 out of 12
Air Quality Not available.
Flu Activity Sporadic
METAR K36U 231115Z AUTO 00000KT 10SM CLR M01/M04 A3022 RMK AO2

More Conditions Fewer Conditions

10-Day Weather Forecast

Almanac

Astronomy

Oct. 23, 2014 Rise Set
Actual Time 7:46 AM MDT 6:35 PM MDT
Civil Twilight 7:18 AM MDT 7:03 PM MDT
Nautical Twilight 6:46 AM MDT 7:34 PM MDT
Astronomical Twilight 6:15 AM MDT 8:06 PM MDT
Moon 7:29 AM MDT 6:39 PM MDT
Length of Visible Light 11h 44m
Length of Day
10h 49m
Tomorrow will be 2m 28s shorter.
Waning Crescent, 0% of the Moon is Illuminated
Today
Waning Crescent
Oct 23
New
Oct 30
First Quarter
Nov 6
Full
Nov 14
Last Quarter

Today's Extremes

State Highs State Lows

Community

WunderPhotos

Upload Photos

1,764,206 photos uploaded!

Nearby

Snow Depth

Station Depth Elevation
Cascade Mountain 2 in 7768 ft
Payson R.S. 1 in 8050 ft
Daniels-Strawberry 2 in 8000 ft
Strawberry Divide 1 in 8400 ft
Brighton 0 in 8750 ft

Earthquake Activity

City Distance Mag. Time & Date
Ferron, Utah 87 miles 2.5 10:53 PM MDT
2014-10-21
Minimum magnitude displayed is 2.5.

Coastal Water Temperatures

Place Temperature
No Stations Reporting

Nearby Weather Stations